sensor_id;sensor_type;location;lat;lon;timestamp;P1;durP1;ratioP1;P2;durP2;ratioP2
74777;SDS011;63298;53.164;8.610;2023-04-25T00:01:15;18.65;;;3.50;;
74777;SDS011;63298;53.164;8.610;2023-04-25T00:03:41;15.00;;;2.35;;
74777;SDS011;63298;53.164;8.610;2023-04-25T00:06:06;18.92;;;2.85;;
74777;SDS011;63298;53.164;8.610;2023-04-25T00:08:32;14.18;;;2.50;;
74777;SDS011;63298;53.164;8.610;2023-04-25T00:10:58;23.15;;;3.17;;
74777;SDS011;63298;53.164;8.610;2023-04-25T00:13:24;13.85;;;2.28;;
74777;SDS011;63298;53.164;8.610;2023-04-25T00:15:50;19.55;;;2.90;;
74777;SDS011;63298;53.164;8.610;2023-04-25T00:18:15;21.48;;;2.90;;
74777;SDS011;63298;53.164;8.610;2023-04-25T00:20:40;17.02;;;3.15;;
74777;SDS011;63298;53.164;8.610;2023-04-25T00:23:06;17.38;;;3.35;;
74777;SDS011;63298;53.164;8.610;2023-04-25T00:25:31;16.93;;;2.57;;
74777;SDS011;63298;53.164;8.610;2023-04-25T00:27:56;14.02;;;3.28;;
74777;SDS011;63298;53.164;8.610;2023-04-25T00:30:22;20.60;;;2.83;;
74777;SDS011;63298;53.164;8.610;2023-04-25T00:32:47;19.42;;;3.35;;
74777;SDS011;63298;53.164;8.610;2023-04-25T00:35:12;15.18;;;2.45;;
74777;SDS011;63298;53.164;8.610;2023-04-25T00:37:38;19.85;;;3.25;;
74777;SDS011;63298;53.164;8.610;2023-04-25T00:40:04;22.63;;;2.88;;
74777;SDS011;63298;53.164;8.610;2023-04-25T00:42:31;27.10;;;3.22;;
74777;SDS011;63298;53.164;8.610;2023-04-25T00:44:56;20.23;;;2.78;;
74777;SDS011;63298;53.164;8.610;2023-04-25T00:47:23;21.05;;;3.30;;
74777;SDS011;63298;53.164;8.610;2023-04-25T00:49:48;21.67;;;3.70;;
74777;SDS011;63298;53.164;8.610;2023-04-25T00:52:14;14.88;;;2.47;;
74777;SDS011;63298;53.164;8.610;2023-04-25T00:54:39;14.45;;;2.65;;
74777;SDS011;63298;53.164;8.610;2023-04-25T00:57:05;20.95;;;2.80;;
74777;SDS011;63298;53.164;8.610;2023-04-25T00:59:30;26.15;;;2.78;;
74777;SDS011;63298;53.164;8.610;2023-04-25T01:01:56;24.88;;;3.03;;
74777;SDS011;63298;53.164;8.610;2023-04-25T01:04:21;21.33;;;2.80;;
74777;SDS011;63298;53.164;8.610;2023-04-25T01:06:47;24.17;;;2.80;;
74777;SDS011;63298;53.164;8.610;2023-04-25T01:09:13;19.60;;;3.08;;
74777;SDS011;63298;53.164;8.610;2023-04-25T01:11:38;18.77;;;2.55;;
74777;SDS011;63298;53.164;8.610;2023-04-25T01:14:03;31.83;;;5.05;;
74777;SDS011;63298;53.164;8.610;2023-04-25T01:16:29;20.23;;;2.42;;
74777;SDS011;63298;53.164;8.610;2023-04-25T01:18:55;20.85;;;2.72;;
74777;SDS011;63298;53.164;8.610;2023-04-25T01:21:20;20.83;;;2.42;;
74777;SDS011;63298;53.164;8.610;2023-04-25T01:23:46;26.40;;;3.15;;
74777;SDS011;63298;53.164;8.610;2023-04-25T01:26:12;20.60;;;2.92;;
74777;SDS011;63298;53.164;8.610;2023-04-25T01:28:38;21.00;;;2.88;;
74777;SDS011;63298;53.164;8.610;2023-04-25T01:31:04;15.88;;;2.40;;
74777;SDS011;63298;53.164;8.610;2023-04-25T01:33:30;22.08;;;3.17;;
74777;SDS011;63298;53.164;8.610;2023-04-25T01:35:55;15.65;;;2.42;;
74777;SDS011;63298;53.164;8.610;2023-04-25T01:38:21;14.10;;;2.85;;
74777;SDS011;63298;53.164;8.610;2023-04-25T01:40:46;25.10;;;3.10;;
74777;SDS011;63298;53.164;8.610;2023-04-25T01:43:11;9.70;;;1.85;;
74777;SDS011;63298;53.164;8.610;2023-04-25T01:45:38;23.42;;;2.80;;
74777;SDS011;63298;53.164;8.610;2023-04-25T01:48:03;12.57;;;1.85;;
74777;SDS011;63298;53.164;8.610;2023-04-25T01:50:29;12.45;;;2.95;;
74777;SDS011;63298;53.164;8.610;2023-04-25T01:52:54;15.00;;;3.33;;
74777;SDS011;63298;53.164;8.610;2023-04-25T01:55:20;19.70;;;2.67;;
74777;SDS011;63298;53.164;8.610;2023-04-25T01:57:45;16.58;;;3.03;;
74777;SDS011;63298;53.164;8.610;2023-04-25T02:00:11;18.05;;;2.55;;
74777;SDS011;63298;53.164;8.610;2023-04-25T02:02:36;16.58;;;3.15;;
74777;SDS011;63298;53.164;8.610;2023-04-25T02:05:02;14.95;;;2.85;;
74777;SDS011;63298;53.164;8.610;2023-04-25T02:07:27;10.90;;;2.17;;
74777;SDS011;63298;53.164;8.610;2023-04-25T02:09:53;19.80;;;2.93;;
74777;SDS011;63298;53.164;8.610;2023-04-25T02:12:18;26.33;;;2.73;;
74777;SDS011;63298;53.164;8.610;2023-04-25T02:14:43;12.20;;;2.78;;
74777;SDS011;63298;53.164;8.610;2023-04-25T02:17:09;23.15;;;2.92;;
74777;SDS011;63298;53.164;8.610;2023-04-25T02:19:34;15.45;;;2.05;;
74777;SDS011;63298;53.164;8.610;2023-04-25T02:21:59;15.10;;;2.88;;
74777;SDS011;63298;53.164;8.610;2023-04-25T02:24:25;17.42;;;2.90;;
74777;SDS011;63298;53.164;8.610;2023-04-25T02:26:50;11.40;;;2.33;;
74777;SDS011;63298;53.164;8.610;2023-04-25T02:29:16;12.20;;;2.83;;
74777;SDS011;63298;53.164;8.610;2023-04-25T02:31:41;22.08;;;3.17;;
74777;SDS011;63298;53.164;8.610;2023-04-25T02:34:07;20.15;;;2.85;;
74777;SDS011;63298;53.164;8.610;2023-04-25T02:36:33;19.33;;;2.70;;
74777;SDS011;63298;53.164;8.610;2023-04-25T02:38:58;10.07;;;2.23;;
74777;SDS011;63298;53.164;8.610;2023-04-25T02:41:24;14.55;;;2.50;;
74777;SDS011;63298;53.164;8.610;2023-04-25T02:43:49;12.88;;;2.45;;
74777;SDS011;63298;53.164;8.610;2023-04-25T02:46:14;16.55;;;2.00;;
74777;SDS011;63298;53.164;8.610;2023-04-25T02:48:40;12.80;;;2.20;;
74777;SDS011;63298;53.164;8.610;2023-04-25T02:51:05;14.98;;;2.05;;
74777;SDS011;63298;53.164;8.610;2023-04-25T02:53:30;14.27;;;2.28;;
74777;SDS011;63298;53.164;8.610;2023-04-25T02:55:56;10.88;;;2.25;;
74777;SDS011;63298;53.164;8.610;2023-04-25T02:58:21;15.20;;;2.08;;
74777;SDS011;63298;53.164;8.610;2023-04-25T03:00:46;12.63;;;2.53;;
74777;SDS011;63298;53.164;8.610;2023-04-25T03:03:12;7.88;;;1.90;;
74777;SDS011;63298;53.164;8.610;2023-04-25T03:05:37;18.67;;;2.60;;
74777;SDS011;63298;53.164;8.610;2023-04-25T03:08:03;12.38;;;1.95;;
74777;SDS011;63298;53.164;8.610;2023-04-25T03:10:28;18.08;;;3.08;;
74777;SDS011;63298;53.164;8.610;2023-04-25T03:12:54;20.25;;;3.00;;
74777;SDS011;63298;53.164;8.610;2023-04-25T03:15:19;17.73;;;3.00;;
74777;SDS011;63298;53.164;8.610;2023-04-25T03:17:44;11.05;;;2.85;;
74777;SDS011;63298;53.164;8.610;2023-04-25T03:20:10;15.68;;;2.08;;
74777;SDS011;63298;53.164;8.610;2023-04-25T03:22:36;19.20;;;2.90;;
74777;SDS011;63298;53.164;8.610;2023-04-25T03:25:01;11.20;;;2.53;;
74777;SDS011;63298;53.164;8.610;2023-04-25T03:27:27;14.20;;;2.30;;
74777;SDS011;63298;53.164;8.610;2023-04-25T03:29:52;20.50;;;3.17;;
74777;SDS011;63298;53.164;8.610;2023-04-25T03:32:18;11.68;;;1.83;;
74777;SDS011;63298;53.164;8.610;2023-04-25T03:34:43;7.17;;;1.77;;
74777;SDS011;63298;53.164;8.610;2023-04-25T03:37:09;19.13;;;2.85;;
74777;SDS011;63298;53.164;8.610;2023-04-25T03:39:34;11.45;;;2.00;;
74777;SDS011;63298;53.164;8.610;2023-04-25T03:41:59;16.55;;;2.67;;
74777;SDS011;63298;53.164;8.610;2023-04-25T03:44:25;10.15;;;2.13;;
74777;SDS011;63298;53.164;8.610;2023-04-25T03:46:50;17.55;;;2.53;;
74777;SDS011;63298;53.164;8.610;2023-04-25T03:49:16;14.15;;;2.00;;
74777;SDS011;63298;53.164;8.610;2023-04-25T03:51:41;17.02;;;1.85;;
74777;SDS011;63298;53.164;8.610;2023-04-25T03:54:06;10.88;;;1.77;;
74777;SDS011;63298;53.164;8.610;2023-04-25T03:56:32;13.90;;;1.95;;
74777;SDS011;63298;53.164;8.610;2023-04-25T03:58:57;19.95;;;2.58;;
74777;SDS011;63298;53.164;8.610;2023-04-25T04:01:22;16.33;;;1.92;;
74777;SDS011;63298;53.164;8.610;2023-04-25T04:03:48;11.37;;;2.43;;
74777;SDS011;63298;53.164;8.610;2023-04-25T04:06:13;19.13;;;2.77;;
74777;SDS011;63298;53.164;8.610;2023-04-25T04:08:38;10.98;;;2.00;;
74777;SDS011;63298;53.164;8.610;2023-04-25T04:11:04;11.43;;;1.83;;
74777;SDS011;63298;53.164;8.610;2023-04-25T04:13:29;13.40;;;2.15;;
74777;SDS011;63298;53.164;8.610;2023-04-25T04:15:54;11.25;;;2.47;;
74777;SDS011;63298;53.164;8.610;2023-04-25T04:18:20;11.93;;;3.00;;
74777;SDS011;63298;53.164;8.610;2023-04-25T04:20:45;13.18;;;2.22;;
74777;SDS011;63298;53.164;8.610;2023-04-25T04:23:11;12.83;;;1.87;;
74777;SDS011;63298;53.164;8.610;2023-04-25T04:25:36;13.38;;;2.03;;
74777;SDS011;63298;53.164;8.610;2023-04-25T04:28:02;20.42;;;2.35;;
74777;SDS011;63298;53.164;8.610;2023-04-25T04:30:27;9.85;;;2.05;;
74777;SDS011;63298;53.164;8.610;2023-04-25T04:32:53;13.73;;;2.67;;
74777;SDS011;63298;53.164;8.610;2023-04-25T04:35:18;11.25;;;2.08;;
74777;SDS011;63298;53.164;8.610;2023-04-25T04:37:43;9.30;;;2.38;;
74777;SDS011;63298;53.164;8.610;2023-04-25T04:40:09;12.75;;;2.20;;
74777;SDS011;63298;53.164;8.610;2023-04-25T04:42:34;8.93;;;1.60;;
74777;SDS011;63298;53.164;8.610;2023-04-25T04:45:00;7.90;;;1.70;;
74777;SDS011;63298;53.164;8.610;2023-04-25T04:47:25;14.93;;;2.23;;
74777;SDS011;63298;53.164;8.610;2023-04-25T04:49:50;15.37;;;2.40;;
74777;SDS011;63298;53.164;8.610;2023-04-25T04:52:16;9.07;;;2.08;;
74777;SDS011;63298;53.164;8.610;2023-04-25T04:54:41;12.30;;;1.75;;
74777;SDS011;63298;53.164;8.610;2023-04-25T04:57:06;12.60;;;1.80;;
74777;SDS011;63298;53.164;8.610;2023-04-25T04:59:32;10.85;;;1.55;;
74777;SDS011;63298;53.164;8.610;2023-04-25T05:01:57;10.93;;;1.73;;
74777;SDS011;63298;53.164;8.610;2023-04-25T05:04:22;11.48;;;2.22;;
74777;SDS011;63298;53.164;8.610;2023-04-25T05:06:48;20.02;;;2.45;;
74777;SDS011;63298;53.164;8.610;2023-04-25T05:09:13;14.02;;;1.98;;
74777;SDS011;63298;53.164;8.610;2023-04-25T05:11:38;10.53;;;1.63;;
74777;SDS011;63298;53.164;8.610;2023-04-25T05:14:04;17.33;;;2.07;;
74777;SDS011;63298;53.164;8.610;2023-04-25T05:16:29;15.10;;;1.50;;
74777;SDS011;63298;53.164;8.610;2023-04-25T05:18:54;16.17;;;2.00;;
74777;SDS011;63298;53.164;8.610;2023-04-25T05:21:19;8.75;;;1.48;;
74777;SDS011;63298;53.164;8.610;2023-04-25T05:23:45;10.90;;;2.03;;
74777;SDS011;63298;53.164;8.610;2023-04-25T05:26:10;8.07;;;1.63;;
74777;SDS011;63298;53.164;8.610;2023-04-25T05:28:36;8.32;;;1.70;;
74777;SDS011;63298;53.164;8.610;2023-04-25T05:31:01;11.55;;;1.80;;
74777;SDS011;63298;53.164;8.610;2023-04-25T05:33:26;11.65;;;1.85;;
74777;SDS011;63298;53.164;8.610;2023-04-25T05:35:52;7.83;;;1.60;;
74777;SDS011;63298;53.164;8.610;2023-04-25T05:38:17;9.95;;;1.60;;
74777;SDS011;63298;53.164;8.610;2023-04-25T05:40:42;12.57;;;2.00;;
74777;SDS011;63298;53.164;8.610;2023-04-25T05:43:08;12.73;;;1.88;;
74777;SDS011;63298;53.164;8.610;2023-04-25T05:45:33;11.65;;;1.83;;
74777;SDS011;63298;53.164;8.610;2023-04-25T05:47:58;9.52;;;2.17;;
74777;SDS011;63298;53.164;8.610;2023-04-25T05:50:23;12.27;;;1.67;;
74777;SDS011;63298;53.164;8.610;2023-04-25T05:52:49;9.95;;;1.90;;
74777;SDS011;63298;53.164;8.610;2023-04-25T05:55:14;6.68;;;1.58;;
74777;SDS011;63298;53.164;8.610;2023-04-25T05:57:40;8.35;;;1.42;;
74777;SDS011;63298;53.164;8.610;2023-04-25T06:00:05;14.18;;;2.75;;
74777;SDS011;63298;53.164;8.610;2023-04-25T06:02:31;8.48;;;1.58;;
74777;SDS011;63298;53.164;8.610;2023-04-25T06:04:56;14.52;;;2.33;;
74777;SDS011;63298;53.164;8.610;2023-04-25T06:07:22;15.40;;;1.80;;
74777;SDS011;63298;53.164;8.610;2023-04-25T06:09:47;12.13;;;1.80;;
74777;SDS011;63298;53.164;8.610;2023-04-25T06:12:12;5.75;;;1.73;;
74777;SDS011;63298;53.164;8.610;2023-04-25T06:14:41;10.25;;;1.83;;
74777;SDS011;63298;53.164;8.610;2023-04-25T06:17:12;12.93;;;2.00;;
74777;SDS011;63298;53.164;8.610;2023-04-25T06:19:37;10.45;;;1.67;;
74777;SDS011;63298;53.164;8.610;2023-04-25T06:22:05;14.20;;;1.70;;
74777;SDS011;63298;53.164;8.610;2023-04-25T06:24:30;10.80;;;1.73;;
74777;SDS011;63298;53.164;8.610;2023-04-25T06:26:56;11.07;;;2.58;;
74777;SDS011;63298;53.164;8.610;2023-04-25T06:29:22;12.23;;;1.63;;
74777;SDS011;63298;53.164;8.610;2023-04-25T06:31:49;4.75;;;1.25;;
74777;SDS011;63298;53.164;8.610;2023-04-25T06:34:14;6.75;;;1.40;;
74777;SDS011;63298;53.164;8.610;2023-04-25T06:36:40;8.00;;;1.30;;
74777;SDS011;63298;53.164;8.610;2023-04-25T06:39:05;12.27;;;1.98;;
74777;SDS011;63298;53.164;8.610;2023-04-25T06:41:32;5.90;;;1.30;;
74777;SDS011;63298;53.164;8.610;2023-04-25T06:43:57;9.98;;;1.58;;
74777;SDS011;63298;53.164;8.610;2023-04-25T06:46:22;12.13;;;1.40;;
74777;SDS011;63298;53.164;8.610;2023-04-25T06:48:48;8.43;;;1.38;;
74777;SDS011;63298;53.164;8.610;2023-04-25T06:51:13;10.02;;;1.27;;
74777;SDS011;63298;53.164;8.610;2023-04-25T06:53:39;9.07;;;2.20;;
74777;SDS011;63298;53.164;8.610;2023-04-25T06:56:05;5.22;;;1.23;;
74777;SDS011;63298;53.164;8.610;2023-04-25T06:58:30;8.55;;;1.20;;
74777;SDS011;63298;53.164;8.610;2023-04-25T07:00:56;8.90;;;1.17;;
74777;SDS011;63298;53.164;8.610;2023-04-25T07:03:21;14.35;;;2.15;;
74777;SDS011;63298;53.164;8.610;2023-04-25T07:05:47;12.52;;;1.88;;
74777;SDS011;63298;53.164;8.610;2023-04-25T07:08:12;7.75;;;1.35;;
74777;SDS011;63298;53.164;8.610;2023-04-25T07:10:38;7.70;;;1.33;;
74777;SDS011;63298;53.164;8.610;2023-04-25T07:13:03;10.50;;;1.75;;
74777;SDS011;63298;53.164;8.610;2023-04-25T07:15:28;11.45;;;1.70;;
74777;SDS011;63298;53.164;8.610;2023-04-25T07:17:54;10.75;;;1.50;;
74777;SDS011;63298;53.164;8.610;2023-04-25T07:20:19;9.48;;;1.30;;
74777;SDS011;63298;53.164;8.610;2023-04-25T07:22:45;6.47;;;1.25;;
74777;SDS011;63298;53.164;8.610;2023-04-25T07:25:10;11.88;;;1.55;;
74777;SDS011;63298;53.164;8.610;2023-04-25T07:27:35;8.73;;;1.10;;
74777;SDS011;63298;53.164;8.610;2023-04-25T07:30:01;3.92;;;1.20;;
74777;SDS011;63298;53.164;8.610;2023-04-25T07:32:27;8.02;;;1.42;;
74777;SDS011;63298;53.164;8.610;2023-04-25T07:34:52;8.48;;;1.08;;
74777;SDS011;63298;53.164;8.610;2023-04-25T07:37:17;8.32;;;1.58;;
74777;SDS011;63298;53.164;8.610;2023-04-25T07:39:43;9.20;;;1.25;;
74777;SDS011;63298;53.164;8.610;2023-04-25T07:42:08;11.23;;;1.95;;
74777;SDS011;63298;53.164;8.610;2023-04-25T07:44:34;10.00;;;1.60;;
74777;SDS011;63298;53.164;8.610;2023-04-25T07:46:59;6.05;;;1.20;;
74777;SDS011;63298;53.164;8.610;2023-04-25T07:49:25;10.75;;;1.73;;
74777;SDS011;63298;53.164;8.610;2023-04-25T07:51:50;10.25;;;1.60;;
74777;SDS011;63298;53.164;8.610;2023-04-25T07:54:16;7.70;;;1.58;;
74777;SDS011;63298;53.164;8.610;2023-04-25T07:56:42;10.02;;;1.85;;
74777;SDS011;63298;53.164;8.610;2023-04-25T07:59:07;10.20;;;1.45;;
74777;SDS011;63298;53.164;8.610;2023-04-25T08:01:33;10.98;;;1.60;;
74777;SDS011;63298;53.164;8.610;2023-04-25T08:03:59;13.48;;;1.65;;
74777;SDS011;63298;53.164;8.610;2023-04-25T08:06:24;9.05;;;1.75;;
74777;SDS011;63298;53.164;8.610;2023-04-25T08:08:50;8.07;;;1.38;;
74777;SDS011;63298;53.164;8.610;2023-04-25T08:11:15;11.07;;;1.67;;
74777;SDS011;63298;53.164;8.610;2023-04-25T08:13:41;13.48;;;1.63;;
74777;SDS011;63298;53.164;8.610;2023-04-25T08:16:06;8.00;;;1.20;;
74777;SDS011;63298;53.164;8.610;2023-04-25T08:18:32;7.47;;;1.33;;
74777;SDS011;63298;53.164;8.610;2023-04-25T08:20:57;10.05;;;1.60;;
74777;SDS011;63298;53.164;8.610;2023-04-25T08:23:22;3.15;;;0.82;;
74777;SDS011;63298;53.164;8.610;2023-04-25T08:25:48;8.85;;;1.00;;
74777;SDS011;63298;53.164;8.610;2023-04-25T08:28:14;5.05;;;0.98;;
74777;SDS011;63298;53.164;8.610;2023-04-25T08:30:40;4.05;;;0.80;;
74777;SDS011;63298;53.164;8.610;2023-04-25T08:33:05;4.25;;;0.90;;
74777;SDS011;63298;53.164;8.610;2023-04-25T08:35:31;6.47;;;1.00;;
74777;SDS011;63298;53.164;8.610;2023-04-25T08:37:56;3.63;;;0.70;;
74777;SDS011;63298;53.164;8.610;2023-04-25T08:40:22;4.82;;;0.75;;
74777;SDS011;63298;53.164;8.610;2023-04-25T08:42:47;3.95;;;0.57;;
74777;SDS011;63298;53.164;8.610;2023-04-25T08:45:15;7.25;;;1.10;;
74777;SDS011;63298;53.164;8.610;2023-04-25T08:47:40;10.07;;;1.00;;
74777;SDS011;63298;53.164;8.610;2023-04-25T08:50:08;2.78;;;0.90;;
74777;SDS011;63298;53.164;8.610;2023-04-25T08:52:37;6.80;;;1.20;;
74777;SDS011;63298;53.164;8.610;2023-04-25T08:55:10;5.28;;;1.00;;
74777;SDS011;63298;53.164;8.610;2023-04-25T08:57:38;8.63;;;0.80;;
74777;SDS011;63298;53.164;8.610;2023-04-25T09:00:04;2.80;;;1.05;;
74777;SDS011;63298;53.164;8.610;2023-04-25T09:02:30;2.13;;;1.20;;
74777;SDS011;63298;53.164;8.610;2023-04-25T09:04:56;5.45;;;0.90;;
74777;SDS011;63298;53.164;8.610;2023-04-25T09:07:21;6.68;;;1.13;;
74777;SDS011;63298;53.164;8.610;2023-04-25T09:09:46;4.95;;;1.00;;
74777;SDS011;63298;53.164;8.610;2023-04-25T09:12:12;6.60;;;1.20;;
74777;SDS011;63298;53.164;8.610;2023-04-25T09:14:38;5.07;;;0.98;;
74777;SDS011;63298;53.164;8.610;2023-04-25T09:17:03;5.90;;;0.82;;
74777;SDS011;63298;53.164;8.610;2023-04-25T09:19:48;6.32;;;0.77;;
74777;SDS011;63298;53.164;8.610;2023-04-25T09:22:13;5.95;;;0.95;;
74777;SDS011;63298;53.164;8.610;2023-04-25T09:24:40;10.50;;;1.13;;
74777;SDS011;63298;53.164;8.610;2023-04-25T09:27:12;4.60;;;0.93;;
74777;SDS011;63298;53.164;8.610;2023-04-25T09:29:43;2.80;;;1.10;;
74777;SDS011;63298;53.164;8.610;2023-04-25T09:34:44;4.10;;;1.00;;
74777;SDS011;63298;53.164;8.610;2023-04-25T09:37:20;4.07;;;0.88;;
74777;SDS011;63298;53.164;8.610;2023-04-25T09:39:47;3.60;;;0.93;;
74777;SDS011;63298;53.164;8.610;2023-04-25T09:42:15;6.07;;;1.00;;
74777;SDS011;63298;53.164;8.610;2023-04-25T09:44:41;11.48;;;1.02;;
74777;SDS011;63298;53.164;8.610;2023-04-25T09:47:09;3.08;;;0.98;;
74777;SDS011;63298;53.164;8.610;2023-04-25T09:49:38;11.18;;;1.20;;
74777;SDS011;63298;53.164;8.610;2023-04-25T09:52:04;7.35;;;0.95;;
74777;SDS011;63298;53.164;8.610;2023-04-25T09:54:29;2.28;;;0.90;;
74777;SDS011;63298;53.164;8.610;2023-04-25T09:56:55;5.28;;;0.77;;
74777;SDS011;63298;53.164;8.610;2023-04-25T09:59:21;4.00;;;0.70;;
74777;SDS011;63298;53.164;8.610;2023-04-25T10:01:47;4.47;;;0.80;;
74777;SDS011;63298;53.164;8.610;2023-04-25T10:04:16;4.50;;;1.13;;
74777;SDS011;63298;53.164;8.610;2023-04-25T10:06:44;2.22;;;0.63;;
74777;SDS011;63298;53.164;8.610;2023-04-25T10:09:12;3.67;;;1.00;;
74777;SDS011;63298;53.164;8.610;2023-04-25T10:11:38;2.88;;;0.85;;
74777;SDS011;63298;53.164;8.610;2023-04-25T10:14:04;5.60;;;0.98;;
74777;SDS011;63298;53.164;8.610;2023-04-25T10:16:30;5.70;;;1.20;;
74777;SDS011;63298;53.164;8.610;2023-04-25T10:18:55;6.88;;;1.15;;
74777;SDS011;63298;53.164;8.610;2023-04-25T10:21:21;8.02;;;1.00;;
74777;SDS011;63298;53.164;8.610;2023-04-25T10:23:48;5.05;;;0.70;;
74777;SDS011;63298;53.164;8.610;2023-04-25T10:26:14;3.92;;;0.68;;
74777;SDS011;63298;53.164;8.610;2023-04-25T10:28:56;4.88;;;0.90;;
74777;SDS011;63298;53.164;8.610;2023-04-25T10:31:25;3.72;;;0.70;;
74777;SDS011;63298;53.164;8.610;2023-04-25T10:33:51;3.83;;;0.73;;
74777;SDS011;63298;53.164;8.610;2023-04-25T10:36:17;2.20;;;0.90;;
74777;SDS011;63298;53.164;8.610;2023-04-25T10:38:44;6.68;;;0.90;;
74777;SDS011;63298;53.164;8.610;2023-04-25T10:41:11;3.13;;;0.68;;
74777;SDS011;63298;53.164;8.610;2023-04-25T10:43:41;7.70;;;1.10;;
74777;SDS011;63298;53.164;8.610;2023-04-25T10:48:55;2.13;;;1.00;;
74777;SDS011;63298;53.164;8.610;2023-04-25T10:51:23;6.38;;;0.80;;
74777;SDS011;63298;53.164;8.610;2023-04-25T10:56:27;3.10;;;0.88;;
74777;SDS011;63298;53.164;8.610;2023-04-25T11:01:41;4.25;;;0.93;;
74777;SDS011;63298;53.164;8.610;2023-04-25T11:04:23;4.30;;;1.10;;
74777;SDS011;63298;53.164;8.610;2023-04-25T11:09:40;5.53;;;0.90;;
74777;SDS011;63298;53.164;8.610;2023-04-25T11:12:09;6.90;;;1.02;;
74777;SDS011;63298;53.164;8.610;2023-04-25T11:14:35;10.25;;;1.88;;
74777;SDS011;63298;53.164;8.610;2023-04-25T11:17:01;4.80;;;1.00;;
74777;SDS011;63298;53.164;8.610;2023-04-25T11:19:26;5.97;;;0.98;;
74777;SDS011;63298;53.164;8.610;2023-04-25T11:21:56;5.72;;;0.90;;
74777;SDS011;63298;53.164;8.610;2023-04-25T11:24:29;3.58;;;0.63;;
74777;SDS011;63298;53.164;8.610;2023-04-25T11:26:56;4.13;;;0.73;;
74777;SDS011;63298;53.164;8.610;2023-04-25T11:29:23;7.72;;;1.20;;
74777;SDS011;63298;53.164;8.610;2023-04-25T11:31:52;4.70;;;1.00;;
74777;SDS011;63298;53.164;8.610;2023-04-25T11:34:18;3.10;;;0.95;;
74777;SDS011;63298;53.164;8.610;2023-04-25T11:36:44;3.85;;;1.00;;
74777;SDS011;63298;53.164;8.610;2023-04-25T11:39:11;6.55;;;1.08;;
74777;SDS011;63298;53.164;8.610;2023-04-25T11:41:40;10.32;;;1.55;;
74777;SDS011;63298;53.164;8.610;2023-04-25T11:44:06;8.60;;;1.20;;
74777;SDS011;63298;53.164;8.610;2023-04-25T11:46:35;4.90;;;0.93;;
74777;SDS011;63298;53.164;8.610;2023-04-25T11:49:01;3.75;;;0.77;;
74777;SDS011;63298;53.164;8.610;2023-04-25T11:51:26;4.32;;;0.52;;
74777;SDS011;63298;53.164;8.610;2023-04-25T11:53:52;1.45;;;0.60;;
74777;SDS011;63298;53.164;8.610;2023-04-25T11:56:17;2.95;;;0.73;;
74777;SDS011;63298;53.164;8.610;2023-04-25T12:01:31;3.30;;;0.45;;
74777;SDS011;63298;53.164;8.610;2023-04-25T12:04:14;2.67;;;0.85;;
74777;SDS011;63298;53.164;8.610;2023-04-25T12:06:41;10.27;;;1.02;;
74777;SDS011;63298;53.164;8.610;2023-04-25T12:09:09;3.28;;;0.70;;
74777;SDS011;63298;53.164;8.610;2023-04-25T12:11:45;5.95;;;0.82;;
74777;SDS011;63298;53.164;8.610;2023-04-25T12:14:27;2.95;;;0.80;;
74777;SDS011;63298;53.164;8.610;2023-04-25T12:16:57;5.60;;;1.50;;
74777;SDS011;63298;53.164;8.610;2023-04-25T12:19:24;3.72;;;0.90;;
74777;SDS011;63298;53.164;8.610;2023-04-25T12:21:51;6.65;;;1.05;;
74777;SDS011;63298;53.164;8.610;2023-04-25T12:24:23;3.08;;;0.82;;
74777;SDS011;63298;53.164;8.610;2023-04-25T12:26:53;3.88;;;0.90;;
74777;SDS011;63298;53.164;8.610;2023-04-25T12:29:22;3.92;;;0.90;;
74777;SDS011;63298;53.164;8.610;2023-04-25T12:31:50;1.23;;;0.55;;
74777;SDS011;63298;53.164;8.610;2023-04-25T12:34:17;4.90;;;1.08;;
74777;SDS011;63298;53.164;8.610;2023-04-25T12:36:43;3.03;;;0.93;;
74777;SDS011;63298;53.164;8.610;2023-04-25T12:39:14;5.97;;;1.10;;
74777;SDS011;63298;53.164;8.610;2023-04-25T12:41:43;11.15;;;1.05;;
74777;SDS011;63298;53.164;8.610;2023-04-25T12:44:09;5.15;;;1.30;;
74777;SDS011;63298;53.164;8.610;2023-04-25T12:46:34;4.55;;;1.10;;
74777;SDS011;63298;53.164;8.610;2023-04-25T12:49:00;2.00;;;0.60;;
74777;SDS011;63298;53.164;8.610;2023-04-25T12:51:26;4.97;;;0.98;;
74777;SDS011;63298;53.164;8.610;2023-04-25T12:53:51;5.68;;;1.38;;
74777;SDS011;63298;53.164;8.610;2023-04-25T12:56:16;3.65;;;0.93;;
74777;SDS011;63298;53.164;8.610;2023-04-25T12:58:42;6.05;;;1.00;;
74777;SDS011;63298;53.164;8.610;2023-04-25T13:01:08;3.03;;;0.75;;
74777;SDS011;63298;53.164;8.610;2023-04-25T13:03:33;6.40;;;1.13;;
74777;SDS011;63298;53.164;8.610;2023-04-25T13:05:58;5.25;;;0.73;;
74777;SDS011;63298;53.164;8.610;2023-04-25T13:08:24;3.85;;;1.67;;
74777;SDS011;63298;53.164;8.610;2023-04-25T13:10:49;6.05;;;1.05;;
74777;SDS011;63298;53.164;8.610;2023-04-25T13:13:15;3.75;;;1.10;;
74777;SDS011;63298;53.164;8.610;2023-04-25T13:15:40;8.32;;;1.27;;
74777;SDS011;63298;53.164;8.610;2023-04-25T13:18:06;11.70;;;1.25;;
74777;SDS011;63298;53.164;8.610;2023-04-25T13:20:31;7.05;;;1.10;;
74777;SDS011;63298;53.164;8.610;2023-04-25T13:22:57;4.95;;;0.80;;
74777;SDS011;63298;53.164;8.610;2023-04-25T13:25:22;7.32;;;1.00;;
74777;SDS011;63298;53.164;8.610;2023-04-25T13:27:47;4.80;;;1.15;;
74777;SDS011;63298;53.164;8.610;2023-04-25T13:30:13;4.90;;;0.90;;
74777;SDS011;63298;53.164;8.610;2023-04-25T13:32:39;6.13;;;0.80;;
74777;SDS011;63298;53.164;8.610;2023-04-25T13:35:05;3.58;;;0.68;;
74777;SDS011;63298;53.164;8.610;2023-04-25T13:37:34;7.50;;;1.05;;
74777;SDS011;63298;53.164;8.610;2023-04-25T13:40:01;2.97;;;1.00;;
74777;SDS011;63298;53.164;8.610;2023-04-25T13:42:31;7.65;;;0.90;;
74777;SDS011;63298;53.164;8.610;2023-04-25T13:44:56;4.78;;;0.80;;
74777;SDS011;63298;53.164;8.610;2023-04-25T13:47:22;3.15;;;0.60;;
74777;SDS011;63298;53.164;8.610;2023-04-25T13:49:48;5.68;;;0.90;;
74777;SDS011;63298;53.164;8.610;2023-04-25T13:52:14;6.10;;;0.90;;
74777;SDS011;63298;53.164;8.610;2023-04-25T13:54:39;4.60;;;1.08;;
74777;SDS011;63298;53.164;8.610;2023-04-25T13:57:05;5.90;;;0.95;;
74777;SDS011;63298;53.164;8.610;2023-04-25T13:59:30;8.27;;;1.10;;
74777;SDS011;63298;53.164;8.610;2023-04-25T14:01:55;3.92;;;0.60;;
74777;SDS011;63298;53.164;8.610;2023-04-25T14:04:21;3.15;;;1.08;;
74777;SDS011;63298;53.164;8.610;2023-04-25T14:06:46;2.75;;;0.65;;
74777;SDS011;63298;53.164;8.610;2023-04-25T14:09:12;6.10;;;0.93;;
74777;SDS011;63298;53.164;8.610;2023-04-25T14:11:37;7.82;;;1.00;;
74777;SDS011;63298;53.164;8.610;2023-04-25T14:14:03;8.23;;;1.33;;
74777;SDS011;63298;53.164;8.610;2023-04-25T14:16:29;3.40;;;0.90;;
74777;SDS011;63298;53.164;8.610;2023-04-25T14:18:54;2.63;;;0.70;;
74777;SDS011;63298;53.164;8.610;2023-04-25T14:21:22;4.15;;;0.98;;
74777;SDS011;63298;53.164;8.610;2023-04-25T14:23:47;4.60;;;0.88;;
74777;SDS011;63298;53.164;8.610;2023-04-25T14:26:13;4.93;;;0.95;;
74777;SDS011;63298;53.164;8.610;2023-04-25T14:28:38;4.20;;;0.80;;
74777;SDS011;63298;53.164;8.610;2023-04-25T14:31:03;5.82;;;0.80;;
74777;SDS011;63298;53.164;8.610;2023-04-25T14:33:30;3.83;;;1.38;;
74777;SDS011;63298;53.164;8.610;2023-04-25T14:35:55;4.70;;;0.90;;
74777;SDS011;63298;53.164;8.610;2023-04-25T14:38:20;2.58;;;0.75;;
74777;SDS011;63298;53.164;8.610;2023-04-25T14:40:46;4.88;;;0.90;;
74777;SDS011;63298;53.164;8.610;2023-04-25T14:43:11;6.50;;;1.00;;
74777;SDS011;63298;53.164;8.610;2023-04-25T14:45:37;6.30;;;1.38;;
74777;SDS011;63298;53.164;8.610;2023-04-25T14:48:02;5.97;;;0.90;;
74777;SDS011;63298;53.164;8.610;2023-04-25T14:50:27;7.72;;;1.00;;